KERI

Erie International / Tom Ridge Field Airport

Erie, Pennsylvania, USA
METAR KERI 110251Z 20010KT 10SM OVC026 M01/M06 A3016 RMK AO2 SLP223 T10061061 56007
Observed Flight Rules
Dec-11 @ 02:51 UTC (15 minutes ago) Marginal Visual Flight Rules
Wind Visibility Clouds
200° at 10 knots 10 miles
  • Overcast at 2,600' AGL
Temperatures Readings
Current -1°C / 30°F
Dewpoint -6°C / 21°F
Humidity 69%
Altimeter 30.16" Hg
Pressure 1022.3 hPa
Elevation 222
METAR KERI 110251Z 20010KT 10SM OVC026 M01/M06 A3016 RMK AO2 SLP223 T10061061 56007
Observed Flight Rules
Dec-11 @ 02:51 UTC
(15 minutes ago)
MVFR
Wind Visibility
200° at 10 knots 10 miles
Clouds
  • Overcast at 2,600' AGL
Temperature Dewpoint
-1°C / 30°F -6°C / 21°F
Humidity Altimeter Pressure
69% 30.16" Hg 1022.3 hPa